createdAt,value
2022-09-25T00:00:16.630Z,11.15
2022-09-25T00:01:11.261Z,11.14
2022-09-25T00:01:50.365Z,11.13
2022-09-25T00:02:23.609Z,11.12
2022-09-25T00:02:56.971Z,11.12
2022-09-25T00:03:31.155Z,11.13
2022-09-25T00:04:04.445Z,11.13
2022-09-25T00:04:37.851Z,11.14
2022-09-25T00:05:10.983Z,11.14
2022-09-25T00:05:46.196Z,11.15
2022-09-25T00:06:24.555Z,11.16
2022-09-25T00:06:57.714Z,11.16
2022-09-25T00:07:31.002Z,11.15
2022-09-25T00:08:05.514Z,11.15
2022-09-25T00:08:38.757Z,11.15
2022-09-25T00:09:14.955Z,11.16
2022-09-25T00:09:48.149Z,11.16
2022-09-25T00:10:21.385Z,11.16
2022-09-25T00:10:54.711Z,11.16
2022-09-25T00:11:31.900Z,11.15
2022-09-25T00:12:05.219Z,11.15
2022-09-25T00:12:38.726Z,11.16
2022-09-25T00:13:12.123Z,11.15
2022-09-25T00:13:46.638Z,11.16
2022-09-25T00:14:19.717Z,11.16
2022-09-25T00:14:53.799Z,11.15
2022-09-25T00:15:27.182Z,11.14
2022-09-25T00:16:00.698Z,11.14
2022-09-25T00:16:33.865Z,11.14
2022-09-25T00:17:07.111Z,11.15
2022-09-25T00:17:40.535Z,11.16
2022-09-25T00:18:13.712Z,11.17
2022-09-25T00:19:05.911Z,11.18
2022-09-25T00:19:51.063Z,11.17
2022-09-25T00:20:24.337Z,11.16
2022-09-25T00:21:05.233Z,11.15
2022-09-25T00:21:38.629Z,11.13
2022-09-25T00:22:12.102Z,11.11
2022-09-25T00:22:45.250Z,11.10
2022-09-25T00:23:18.312Z,11.10
2022-09-25T00:23:51.598Z,11.09
2022-09-25T00:24:24.718Z,11.08
2022-09-25T00:24:58.290Z,11.09
2022-09-25T00:25:31.388Z,11.10
2022-09-25T00:26:08.484Z,11.10
2022-09-25T00:26:43.319Z,11.10
2022-09-25T00:27:18.511Z,11.10
2022-09-25T00:27:53.615Z,11.09
2022-09-25T00:28:29.874Z,11.10
2022-09-25T00:29:04.313Z,11.10
2022-09-25T00:29:40.410Z,11.10
2022-09-25T00:30:14.677Z,11.10
2022-09-25T00:30:47.796Z,11.11
2022-09-25T00:31:25.759Z,11.12
2022-09-25T00:31:58.933Z,11.12
2022-09-25T00:32:32.068Z,11.12
2022-09-25T00:33:05.225Z,11.12
2022-09-25T00:33:38.316Z,11.11
2022-09-25T00:34:11.976Z,11.11
2022-09-25T00:34:45.278Z,11.10
2022-09-25T00:35:18.532Z,11.11
2022-09-25T00:35:51.613Z,11.10
2022-09-25T00:36:25.429Z,11.10
2022-09-25T00:36:58.681Z,11.11
2022-09-25T00:37:35.171Z,11.10
2022-09-25T00:38:08.347Z,11.09
2022-09-25T00:38:41.524Z,11.10
2022-09-25T00:39:14.680Z,11.11
2022-09-25T00:39:48.028Z,11.10
2022-09-25T00:40:21.225Z,11.11
2022-09-25T00:40:55.968Z,11.10
2022-09-25T00:41:34.149Z,11.10
2022-09-25T00:42:07.645Z,11.10
2022-09-25T00:42:41.357Z,11.10
2022-09-25T00:43:35.278Z,11.10
2022-09-25T00:44:47.369Z,11.09
2022-09-25T00:45:21.496Z,11.05
2022-09-25T00:45:54.861Z,11.03
2022-09-25T00:46:27.978Z,11.02
2022-09-25T00:47:01.334Z,11.02
2022-09-25T00:47:37.365Z,11.01
2022-09-25T00:48:15.928Z,11.01
2022-09-25T00:49:01.128Z,11.00
2022-09-25T00:49:34.191Z,11.00
2022-09-25T00:50:19.563Z,10.99
2022-09-25T00:50:57.015Z,10.99
2022-09-25T00:51:55.519Z,10.98
2022-09-25T00:52:30.182Z,10.97
2022-09-25T00:53:15.181Z,10.96
2022-09-25T00:53:50.266Z,10.96
2022-09-25T00:54:28.521Z,10.96
2022-09-25T00:55:07.792Z,10.95
2022-09-25T00:55:44.637Z,10.93
2022-09-25T00:56:18.203Z,10.93
2022-09-25T00:56:52.975Z,10.92
2022-09-25T00:57:30.895Z,10.92
2022-09-25T00:58:06.006Z,10.93
2022-09-25T00:58:41.316Z,10.92
2022-09-25T00:59:21.273Z,10.92
2022-09-25T01:00:01.116Z,10.91
2022-09-25T01:00:35.214Z,10.91
2022-09-25T01:01:09.823Z,10.91
2022-09-25T01:01:43.122Z,10.91
2022-09-25T01:02:39.906Z,10.92
2022-09-25T01:03:13.786Z,10.91
2022-09-25T01:03:47.436Z,10.89
2022-09-25T01:04:22.981Z,10.89
2022-09-25T01:05:00.534Z,10.89
2022-09-25T01:05:37.986Z,10.89
2022-09-25T01:06:13.046Z,10.89
2022-09-25T01:06:46.261Z,10.87
2022-09-25T01:07:20.550Z,10.86
2022-09-25T01:07:57.428Z,10.86
2022-09-25T01:08:32.821Z,10.86
2022-09-25T01:09:06.584Z,10.87
2022-09-25T01:09:40.613Z,10.86
2022-09-25T01:10:14.878Z,10.87
2022-09-25T01:10:48.278Z,10.87
2022-09-25T01:11:21.466Z,10.88
2022-09-25T01:11:54.995Z,10.87
2022-09-25T01:12:28.321Z,10.88
2022-09-25T01:13:01.726Z,10.88
2022-09-25T01:13:35.598Z,10.88
2022-09-25T01:14:10.595Z,10.89
2022-09-25T01:14:44.266Z,10.89
2022-09-25T01:15:20.786Z,10.90
2022-09-25T01:15:53.975Z,10.90
2022-09-25T01:16:54.724Z,10.89
2022-09-25T01:17:35.777Z,10.86
2022-09-25T01:18:22.044Z,10.85
2022-09-25T01:19:11.442Z,10.84
2022-09-25T01:20:10.820Z,10.84
2022-09-25T01:20:46.651Z,10.81
2022-09-25T01:21:44.992Z,10.81
2022-09-25T01:22:41.201Z,10.81
2022-09-25T01:23:37.932Z,10.79
2022-09-25T01:24:20.265Z,10.77
2022-09-25T01:25:35.087Z,10.76
2022-09-25T01:26:37.135Z,10.74
2022-09-25T01:27:32.435Z,10.72
2022-09-25T01:28:13.390Z,10.70
2022-09-25T01:29:02.897Z,10.69
2022-09-25T01:29:48.763Z,10.68
2022-09-25T01:30:22.251Z,10.65
2022-09-25T01:31:03.217Z,10.64
2022-09-25T01:31:55.162Z,10.64
2022-09-25T01:32:57.817Z,10.64
2022-09-25T01:33:55.570Z,10.63
2022-09-25T01:34:40.433Z,10.60
2022-09-25T01:35:47.906Z,10.58
2022-09-25T01:36:30.061Z,10.54
2022-09-25T01:37:19.248Z,10.51
2022-09-25T01:37:52.357Z,10.50
2022-09-25T01:38:41.886Z,10.49
2022-09-25T01:39:30.019Z,10.50
2022-09-25T01:40:08.111Z,10.50
2022-09-25T01:40:47.406Z,10.50
2022-09-25T01:41:58.082Z,10.50
2022-09-25T01:42:39.995Z,10.51
2022-09-25T01:43:18.450Z,10.50
2022-09-25T01:44:28.422Z,10.50
2022-09-25T01:45:09.759Z,10.48
2022-09-25T01:45:50.714Z,10.47
2022-09-25T01:46:29.242Z,10.47
2022-09-25T01:47:15.284Z,10.46
2022-09-25T01:47:50.856Z,10.47
2022-09-25T01:48:28.134Z,10.47
2022-09-25T01:49:08.921Z,10.48
2022-09-25T01:49:49.742Z,10.49
2022-09-25T01:50:33.429Z,10.49
2022-09-25T01:51:28.802Z,10.48
2022-09-25T01:52:07.514Z,10.48
2022-09-25T01:52:49.460Z,10.49
2022-09-25T01:53:28.741Z,10.49
2022-09-25T01:54:12.558Z,10.50
2022-09-25T01:54:52.256Z,10.50
2022-09-25T01:55:40.998Z,10.51
2022-09-25T01:56:33.200Z,10.51
2022-09-25T01:57:19.699Z,10.51
2022-09-25T01:58:08.277Z,10.52
2022-09-25T01:58:47.950Z,10.51
2022-09-25T01:59:44.375Z,10.52
2022-09-25T02:00:23.716Z,10.52
2022-09-25T02:01:05.945Z,10.52
2022-09-25T02:01:42.784Z,10.51
2022-09-25T02:02:24.194Z,10.50
2022-09-25T02:03:07.747Z,10.51
2022-09-25T02:03:47.658Z,10.52
2022-09-25T02:04:26.582Z,10.53
2022-09-25T02:05:07.896Z,10.53
2022-09-25T02:05:47.005Z,10.54
2022-09-25T02:06:21.704Z,10.56
2022-09-25T02:06:59.233Z,10.57
2022-09-25T02:07:39.843Z,10.59
2022-09-25T02:08:24.593Z,10.59
2022-09-25T02:09:20.043Z,10.59
2022-09-25T02:10:01.535Z,10.60
2022-09-25T02:10:38.243Z,10.59
2022-09-25T02:11:12.835Z,10.59
2022-09-25T02:11:51.488Z,10.59
2022-09-25T02:12:31.470Z,10.59
2022-09-25T02:13:15.913Z,10.61
2022-09-25T02:13:58.325Z,10.60
2022-09-25T02:14:46.845Z,10.60
2022-09-25T02:15:19.820Z,10.60
2022-09-25T02:16:12.332Z,10.60
2022-09-25T02:16:49.395Z,10.60
2022-09-25T02:17:48.528Z,10.59
2022-09-25T02:18:41.144Z,10.60
2022-09-25T02:19:35.957Z,10.60
2022-09-25T02:20:28.290Z,10.59
2022-09-25T02:21:13.847Z,10.58
2022-09-25T02:21:50.944Z,10.57
2022-09-25T02:22:35.461Z,10.57
2022-09-25T02:23:19.012Z,10.57
2022-09-25T02:24:21.291Z,10.57
2022-09-25T02:25:13.094Z,10.55
2022-09-25T02:26:06.335Z,10.54
2022-09-25T02:26:39.573Z,10.53
2022-09-25T02:27:13.095Z,10.52
2022-09-25T02:27:46.764Z,10.53
2022-09-25T02:28:19.872Z,10.53
2022-09-25T02:28:54.402Z,10.53
2022-09-25T02:29:27.975Z,10.54
2022-09-25T02:30:01.734Z,10.54
2022-09-25T02:30:35.785Z,10.55
2022-09-25T02:31:12.786Z,10.56
2022-09-25T02:31:49.345Z,10.57
2022-09-25T02:32:28.987Z,10.57
2022-09-25T02:33:02.409Z,10.58
2022-09-25T02:33:36.066Z,10.58
2022-09-25T02:34:14.794Z,10.56
2022-09-25T02:34:48.630Z,10.56
2022-09-25T02:35:21.847Z,10.56
2022-09-25T02:35:55.064Z,10.56
2022-09-25T02:36:28.121Z,10.56
2022-09-25T02:37:01.468Z,10.55
2022-09-25T02:37:34.879Z,10.56
2022-09-25T02:38:08.896Z,10.56
2022-09-25T02:38:42.316Z,10.56
2022-09-25T02:39:21.668Z,10.55
2022-09-25T02:40:00.899Z,10.54
2022-09-25T02:40:45.451Z,10.54
2022-09-25T02:41:30.497Z,10.53
2022-09-25T02:42:26.606Z,10.51
2022-09-25T02:43:03.680Z,10.50
2022-09-25T02:44:02.444Z,10.48
2022-09-25T02:45:06.575Z,10.49
2022-09-25T02:45:49.587Z,10.47
2022-09-25T02:47:01.228Z,10.47
2022-09-25T02:47:56.250Z,10.42
2022-09-25T02:48:36.854Z,10.39
2022-09-25T02:49:27.119Z,10.37
2022-09-25T02:50:09.135Z,10.36
2022-09-25T02:50:52.749Z,10.35
2022-09-25T02:51:51.240Z,10.34
2022-09-25T02:52:45.631Z,10.31
2022-09-25T02:53:41.053Z,10.28
2022-09-25T02:54:22.815Z,10.25
2022-09-25T02:55:32.186Z,10.24
2022-09-25T02:56:13.819Z,10.22
2022-09-25T02:57:05.011Z,10.21
2022-09-25T02:57:44.408Z,10.20
2022-09-25T02:58:20.791Z,10.20
2022-09-25T02:59:02.815Z,10.21
2022-09-25T02:59:42.440Z,10.21
2022-09-25T03:00:15.966Z,10.22
2022-09-25T03:00:52.714Z,10.22
2022-09-25T03:01:29.322Z,10.21
2022-09-25T03:02:04.080Z,10.22
2022-09-25T03:02:39.610Z,10.21
2022-09-25T03:03:17.113Z,10.23
2022-09-25T03:03:54.056Z,10.23
2022-09-25T03:04:29.794Z,10.23
2022-09-25T03:05:05.983Z,10.23
2022-09-25T03:05:40.203Z,10.23
2022-09-25T03:06:13.615Z,10.23
2022-09-25T03:06:47.717Z,10.22
2022-09-25T03:07:21.559Z,10.22
2022-09-25T03:08:13.709Z,10.23
2022-09-25T03:08:53.158Z,10.22
2022-09-25T03:09:27.762Z,10.22
2022-09-25T03:10:00.987Z,10.22
2022-09-25T03:10:37.466Z,10.23
2022-09-25T03:11:17.171Z,10.23
2022-09-25T03:11:50.305Z,10.23
2022-09-25T03:12:23.370Z,10.23
2022-09-25T03:12:56.449Z,10.24
2022-09-25T03:13:34.417Z,10.24
2022-09-25T03:14:07.556Z,10.25
2022-09-25T03:14:41.342Z,10.25
2022-09-25T03:15:14.497Z,10.25
2022-09-25T03:15:53.450Z,10.26
2022-09-25T03:16:40.786Z,10.24
2022-09-25T03:17:18.002Z,10.23
2022-09-25T03:17:52.715Z,10.21
2022-09-25T03:18:26.889Z,10.21
2022-09-25T03:19:00.825Z,10.20
2022-09-25T03:19:35.215Z,10.20
2022-09-25T03:20:10.192Z,10.19
2022-09-25T03:20:43.638Z,10.19
2022-09-25T03:21:17.053Z,10.19
2022-09-25T03:21:51.379Z,10.19
2022-09-25T03:22:24.597Z,10.20
2022-09-25T03:22:57.831Z,10.20
2022-09-25T03:23:32.671Z,10.20
2022-09-25T03:24:06.617Z,10.21
2022-09-25T03:24:39.745Z,10.22
2022-09-25T03:25:13.524Z,10.23
2022-09-25T03:25:50.354Z,10.24
2022-09-25T03:26:27.944Z,10.25
2022-09-25T03:27:01.013Z,10.24
2022-09-25T03:27:34.194Z,10.24
2022-09-25T03:28:12.057Z,10.24
2022-09-25T03:28:47.610Z,10.23
2022-09-25T03:29:22.144Z,10.23
2022-09-25T03:29:55.585Z,10.23
2022-09-25T03:30:29.607Z,10.22
2022-09-25T03:31:12.303Z,10.21
2022-09-25T03:31:45.790Z,10.21
2022-09-25T03:32:19.070Z,10.19
2022-09-25T03:32:52.032Z,10.19
2022-09-25T03:33:26.219Z,10.18
2022-09-25T03:33:59.468Z,10.19
2022-09-25T03:34:32.408Z,10.19
2022-09-25T03:35:06.049Z,10.19
2022-09-25T03:35:40.302Z,10.19
2022-09-25T03:36:22.028Z,10.19
2022-09-25T03:36:55.241Z,10.19
2022-09-25T03:37:28.232Z,10.19
2022-09-25T03:38:01.385Z,10.19
2022-09-25T03:38:34.669Z,10.18
2022-09-25T03:39:10.981Z,10.17
2022-09-25T03:39:44.085Z,10.17
2022-09-25T03:40:17.334Z,10.15
2022-09-25T03:40:50.704Z,10.13
2022-09-25T03:41:24.091Z,10.14
2022-09-25T03:41:57.382Z,10.14
2022-09-25T03:42:31.835Z,10.13
2022-09-25T03:43:39.377Z,10.13
2022-09-25T03:44:12.979Z,10.12
2022-09-25T03:44:46.381Z,10.11
2022-09-25T03:45:20.176Z,10.10
2022-09-25T03:45:53.517Z,10.11
2022-09-25T03:46:29.679Z,10.11
2022-09-25T03:47:02.977Z,10.13
2022-09-25T03:47:36.141Z,10.13
2022-09-25T03:48:09.222Z,10.14
2022-09-25T03:48:42.971Z,10.14
2022-09-25T03:49:16.225Z,10.14
2022-09-25T03:49:49.283Z,10.14
2022-09-25T03:50:22.559Z,10.14
2022-09-25T03:50:56.518Z,10.13
2022-09-25T03:51:31.400Z,10.12
2022-09-25T03:52:04.506Z,10.10
2022-09-25T03:52:37.654Z,10.09
2022-09-25T03:53:10.953Z,10.09
2022-09-25T03:53:44.076Z,10.09
2022-09-25T03:54:17.399Z,10.08
2022-09-25T03:54:50.428Z,10.07
2022-09-25T03:55:23.525Z,10.07
2022-09-25T03:55:56.770Z,10.05
2022-09-25T03:56:30.529Z,10.02
2022-09-25T03:57:03.671Z,10.00
2022-09-25T03:57:36.866Z,9.99
2022-09-25T03:58:10.691Z,9.99
2022-09-25T03:58:44.195Z,9.99
2022-09-25T03:59:17.204Z,9.99
2022-09-25T03:59:50.423Z,9.99
2022-09-25T04:00:24.330Z,9.99
2022-09-25T04:00:57.629Z,9.99
2022-09-25T04:01:31.012Z,9.98
2022-09-25T04:02:04.158Z,9.96
2022-09-25T04:02:37.451Z,9.94
2022-09-25T04:03:10.717Z,9.94
2022-09-25T04:03:47.590Z,9.94
2022-09-25T04:04:20.844Z,9.94
2022-09-25T04:04:55.383Z,9.94
2022-09-25T04:05:28.474Z,9.94
2022-09-25T04:06:04.997Z,9.93
2022-09-25T04:06:38.095Z,9.94
2022-09-25T04:07:11.728Z,9.94
2022-09-25T04:07:44.843Z,9.94
2022-09-25T04:08:17.989Z,9.94
2022-09-25T04:08:51.587Z,9.94
2022-09-25T04:09:24.768Z,9.94
2022-09-25T04:09:57.970Z,9.94
2022-09-25T04:10:32.276Z,9.94
2022-09-25T04:11:06.136Z,9.95
2022-09-25T04:11:39.262Z,9.94
2022-09-25T04:12:12.665Z,9.93
2022-09-25T04:12:45.737Z,9.93
2022-09-25T04:13:19.902Z,9.94
2022-09-25T04:13:53.147Z,9.93
2022-09-25T04:14:26.279Z,9.93
2022-09-25T04:14:59.390Z,9.91
2022-09-25T04:15:33.944Z,9.90
2022-09-25T04:16:08.484Z,9.88
2022-09-25T04:16:42.278Z,9.87
2022-09-25T04:17:15.459Z,9.86
2022-09-25T04:17:48.713Z,9.86
2022-09-25T04:18:22.120Z,9.86
2022-09-25T04:18:55.387Z,9.86
2022-09-25T04:19:28.646Z,9.87
2022-09-25T04:20:02.548Z,9.87
2022-09-25T04:20:36.158Z,9.87
2022-09-25T04:21:12.847Z,9.87
2022-09-25T04:21:46.045Z,9.88
2022-09-25T04:22:19.142Z,9.87
2022-09-25T04:22:52.264Z,9.88
2022-09-25T04:23:25.485Z,9.89
2022-09-25T04:24:17.528Z,9.89
2022-09-25T04:24:50.648Z,9.88
2022-09-25T04:25:25.854Z,9.87
2022-09-25T04:25:59.276Z,9.86
2022-09-25T04:26:32.792Z,9.86
2022-09-25T04:27:06.273Z,9.85
2022-09-25T04:27:39.475Z,9.85
2022-09-25T04:28:12.968Z,9.85
2022-09-25T04:28:46.466Z,9.85
2022-09-25T04:29:21.389Z,9.86
2022-09-25T04:29:55.322Z,9.86
2022-09-25T04:30:30.175Z,9.88
2022-09-25T04:31:04.101Z,9.89
2022-09-25T04:31:37.426Z,9.90
2022-09-25T04:32:29.349Z,9.90
2022-09-25T04:33:21.062Z,9.91
2022-09-25T04:33:54.360Z,9.91
2022-09-25T04:34:27.396Z,9.90
2022-09-25T04:35:00.682Z,9.91
2022-09-25T04:35:34.324Z,9.92
2022-09-25T04:36:07.872Z,9.93
2022-09-25T04:36:41.699Z,9.93
2022-09-25T04:37:15.826Z,9.94
2022-09-25T04:37:49.352Z,9.94
2022-09-25T04:38:22.727Z,9.95
2022-09-25T04:38:55.936Z,9.95
2022-09-25T04:39:29.024Z,9.95
2022-09-25T04:40:02.436Z,9.95
2022-09-25T04:40:36.342Z,9.95
2022-09-25T04:41:09.582Z,9.95
2022-09-25T04:41:43.675Z,9.96
2022-09-25T04:42:16.784Z,9.97
2022-09-25T04:42:55.178Z,9.98
2022-09-25T04:43:29.849Z,9.99
2022-09-25T04:44:05.637Z,9.99
2022-09-25T04:44:38.831Z,9.99
2022-09-25T04:45:12.228Z,9.99
2022-09-25T04:45:47.536Z,10.00
2022-09-25T04:46:22.585Z,10.01
2022-09-25T04:46:56.022Z,10.00
2022-09-25T04:47:30.319Z,10.01
2022-09-25T04:48:04.947Z,10.02
2022-09-25T04:48:38.181Z,10.01
2022-09-25T04:49:11.265Z,10.01
2022-09-25T04:49:44.439Z,10.01
2022-09-25T04:50:17.506Z,10.01
2022-09-25T04:50:52.099Z,10.01
2022-09-25T04:51:25.340Z,10.01
2022-09-25T04:51:59.252Z,10.01
2022-09-25T04:52:32.407Z,10.01
2022-09-25T04:53:05.510Z,10.01
2022-09-25T04:53:39.420Z,10.02
2022-09-25T04:54:14.501Z,10.03
2022-09-25T04:54:48.081Z,10.04
2022-09-25T04:55:24.575Z,10.06
2022-09-25T04:56:12.263Z,10.07
2022-09-25T04:56:48.102Z,10.07
2022-09-25T04:57:53.376Z,10.07
2022-09-25T04:58:16.553Z,10.08
2022-09-25T04:58:50.534Z,10.08
2022-09-25T04:59:23.780Z,10.09
2022-09-25T04:59:57.862Z,10.10
2022-09-25T05:00:32.721Z,10.11
2022-09-25T05:01:09.245Z,10.13
2022-09-25T05:01:43.785Z,10.12
2022-09-25T05:02:17.517Z,10.14
2022-09-25T05:02:50.938Z,10.15
2022-09-25T05:03:24.390Z,10.15
2022-09-25T05:03:57.705Z,10.16
2022-09-25T05:04:31.255Z,10.15
2022-09-25T05:05:04.653Z,10.16
2022-09-25T05:05:38.305Z,10.16
2022-09-25T05:06:11.624Z,10.18
2022-09-25T05:06:44.874Z,10.19
2022-09-25T05:07:18.124Z,10.21
2022-09-25T05:07:56.141Z,10.21
2022-09-25T05:08:29.387Z,10.23
2022-09-25T05:09:03.497Z,10.23
2022-09-25T05:09:37.403Z,10.26
2022-09-25T05:10:10.671Z,10.27
2022-09-25T05:10:44.459Z,10.28
2022-09-25T05:11:17.656Z,10.27
2022-09-25T05:11:51.353Z,10.28
2022-09-25T05:12:24.703Z,10.28
2022-09-25T05:12:59.591Z,10.29
2022-09-25T05:13:32.794Z,10.29
2022-09-25T05:14:06.110Z,10.29
2022-09-25T05:14:41.368Z,10.28
2022-09-25T05:15:15.265Z,10.27
2022-09-25T05:15:48.686Z,10.27
2022-09-25T05:16:22.177Z,10.26
2022-09-25T05:16:55.360Z,10.24
2022-09-25T05:17:28.573Z,10.25
2022-09-25T05:18:07.494Z,10.26
2022-09-25T05:18:40.585Z,10.27
2022-09-25T05:19:14.392Z,10.28
2022-09-25T05:19:47.498Z,10.29
2022-09-25T05:20:20.634Z,10.30
2022-09-25T05:20:54.532Z,10.31
2022-09-25T05:21:27.721Z,10.32
2022-09-25T05:22:01.325Z,10.32
2022-09-25T05:22:34.708Z,10.33
2022-09-25T05:23:07.927Z,10.33
2022-09-25T05:23:41.015Z,10.33
2022-09-25T05:24:14.463Z,10.34
2022-09-25T05:24:47.565Z,10.34
2022-09-25T05:25:23.630Z,10.35
2022-09-25T05:26:03.982Z,10.35
2022-09-25T05:26:38.231Z,10.36
2022-09-25T05:27:12.821Z,10.35
2022-09-25T05:27:46.077Z,10.35
2022-09-25T05:28:19.493Z,10.35
2022-09-25T05:28:52.790Z,10.36
2022-09-25T05:29:25.955Z,10.37
2022-09-25T05:29:59.055Z,10.37
2022-09-25T05:30:33.923Z,10.39
2022-09-25T05:31:07.244Z,10.40
2022-09-25T05:31:42.939Z,10.41
2022-09-25T05:32:17.636Z,10.42
2022-09-25T05:32:52.214Z,10.43
2022-09-25T05:33:25.461Z,10.43
2022-09-25T05:33:58.935Z,10.44
2022-09-25T05:34:32.135Z,10.45
2022-09-25T05:35:06.566Z,10.47
2022-09-25T05:35:39.707Z,10.48
2022-09-25T05:36:13.040Z,10.49
2022-09-25T05:36:46.337Z,10.50
2022-09-25T05:37:20.589Z,10.51
2022-09-25T05:37:54.381Z,10.53
2022-09-25T05:38:29.326Z,10.54
2022-09-25T05:39:02.544Z,10.55
2022-09-25T05:39:35.864Z,10.56
2022-09-25T05:40:09.796Z,10.57
2022-09-25T05:40:43.622Z,10.58
2022-09-25T05:41:17.460Z,10.59
2022-09-25T05:41:51.597Z,10.60
2022-09-25T05:42:25.646Z,10.62
2022-09-25T05:43:00.398Z,10.64
2022-09-25T05:43:36.100Z,10.65
2022-09-25T05:44:10.683Z,10.67
2022-09-25T05:44:44.827Z,10.69
2022-09-25T05:45:20.369Z,10.71
2022-09-25T05:45:55.214Z,10.74
2022-09-25T05:46:28.568Z,10.75
2022-09-25T05:47:03.254Z,10.76
2022-09-25T05:47:36.450Z,10.78
2022-09-25T05:48:10.045Z,10.80
2022-09-25T05:48:43.388Z,10.81
2022-09-25T05:49:16.634Z,10.83
2022-09-25T05:49:49.891Z,10.85
2022-09-25T05:50:23.198Z,10.86
2022-09-25T05:50:57.850Z,10.87
2022-09-25T05:51:31.841Z,10.88
2022-09-25T05:52:05.062Z,10.89
2022-09-25T05:52:38.750Z,10.90
2022-09-25T05:53:11.822Z,10.92
2022-09-25T05:53:44.937Z,10.94
2022-09-25T05:54:18.149Z,10.97
2022-09-25T05:54:51.244Z,10.99
2022-09-25T05:55:24.860Z,11.01
2022-09-25T05:56:01.251Z,11.03
2022-09-25T05:56:34.283Z,11.05
2022-09-25T05:57:07.574Z,11.08
2022-09-25T05:57:40.690Z,11.10
2022-09-25T05:58:13.884Z,11.13
2022-09-25T05:58:48.661Z,11.16
2022-09-25T05:59:21.741Z,11.18
2022-09-25T05:59:54.973Z,11.20
2022-09-25T06:00:28.430Z,11.22
2022-09-25T06:01:04.061Z,11.24
2022-09-25T06:01:37.384Z,11.26
2022-09-25T06:02:13.482Z,11.28
2022-09-25T06:02:51.997Z,11.31
2022-09-25T06:03:28.835Z,11.32
2022-09-25T06:04:02.106Z,11.35
2022-09-25T06:04:35.303Z,11.37
2022-09-25T06:05:09.331Z,11.40
2022-09-25T06:05:42.967Z,11.44
2022-09-25T06:06:16.278Z,11.48
2022-09-25T06:06:49.698Z,11.51
2022-09-25T06:07:22.970Z,11.54
2022-09-25T06:07:56.413Z,11.57
2022-09-25T06:08:33.253Z,11.60
2022-09-25T06:09:06.449Z,11.64
2022-09-25T06:09:39.585Z,11.67
2022-09-25T06:10:12.738Z,11.69
2022-09-25T06:10:54.024Z,11.72
2022-09-25T06:11:27.483Z,11.76
2022-09-25T06:12:00.754Z,11.78
2022-09-25T06:12:34.012Z,11.83
2022-09-25T06:13:08.601Z,11.86
2022-09-25T06:13:49.548Z,11.89
2022-09-25T06:14:25.221Z,11.93
2022-09-25T06:14:58.568Z,11.94
2022-09-25T06:15:40.594Z,11.96
2022-09-25T06:16:18.798Z,11.98
2022-09-25T06:16:52.684Z,12.01
2022-09-25T06:17:25.877Z,12.02
2022-09-25T06:17:59.462Z,12.04
2022-09-25T06:18:34.089Z,12.06
2022-09-25T06:19:07.596Z,12.09
2022-09-25T06:19:40.904Z,12.11
2022-09-25T06:20:16.248Z,12.12
2022-09-25T06:20:50.626Z,12.15
2022-09-25T06:21:24.341Z,12.17
2022-09-25T06:22:00.651Z,12.18
2022-09-25T06:22:33.997Z,12.19
2022-09-25T06:23:07.226Z,12.21
2022-09-25T06:23:43.541Z,12.22
2022-09-25T06:24:16.634Z,12.23
2022-09-25T06:24:49.895Z,12.24
2022-09-25T06:25:25.541Z,12.24
2022-09-25T06:26:09.736Z,12.24
2022-09-25T06:26:43.766Z,12.23
2022-09-25T06:27:16.935Z,12.22
2022-09-25T06:27:54.749Z,12.22
2022-09-25T06:28:28.884Z,12.22
2022-09-25T06:29:03.330Z,12.23
2022-09-25T06:29:36.813Z,12.25
2022-09-25T06:30:10.355Z,12.26
2022-09-25T06:30:43.519Z,12.27
2022-09-25T06:31:16.752Z,12.29
2022-09-25T06:31:50.763Z,12.30
2022-09-25T06:32:23.930Z,12.31
2022-09-25T06:32:58.543Z,12.32
2022-09-25T06:33:32.589Z,12.33
2022-09-25T06:34:06.341Z,12.35
2022-09-25T06:34:39.620Z,12.35
2022-09-25T06:35:12.818Z,12.37
2022-09-25T06:35:48.862Z,12.38
2022-09-25T06:36:23.172Z,12.40
2022-09-25T06:36:56.479Z,12.41
2022-09-25T06:37:29.771Z,12.42
2022-09-25T06:38:04.997Z,12.44
2022-09-25T06:38:38.215Z,12.46
2022-09-25T06:39:11.467Z,12.47
2022-09-25T06:39:44.649Z,12.48
2022-09-25T06:40:18.086Z,12.49
2022-09-25T06:40:51.350Z,12.51
2022-09-25T06:41:25.174Z,12.52
2022-09-25T06:41:58.371Z,12.54
2022-09-25T06:42:31.821Z,12.55
2022-09-25T06:43:06.189Z,12.57
2022-09-25T06:43:39.725Z,12.59
2022-09-25T06:44:13.079Z,12.60
2022-09-25T06:44:46.330Z,12.62
2022-09-25T06:45:19.633Z,12.64
2022-09-25T06:45:52.921Z,12.67
2022-09-25T06:46:26.269Z,12.68
2022-09-25T06:47:00.175Z,12.70
2022-09-25T06:47:33.645Z,12.71
2022-09-25T06:48:11.208Z,12.73
2022-09-25T06:48:45.142Z,12.75
2022-09-25T06:49:18.194Z,12.76
2022-09-25T06:49:51.282Z,12.79
2022-09-25T06:50:31.947Z,12.81
2022-09-25T06:51:05.401Z,12.83
2022-09-25T06:51:39.644Z,12.83
2022-09-25T06:52:12.949Z,12.83
2022-09-25T06:52:46.050Z,12.84
2022-09-25T06:53:21.174Z,12.86
2022-09-25T06:53:54.792Z,12.87
2022-09-25T06:54:32.026Z,12.90
2022-09-25T06:55:05.644Z,12.91
2022-09-25T06:55:39.406Z,12.94
2022-09-25T06:56:12.724Z,12.95
2022-09-25T06:56:50.263Z,12.98
2022-09-25T06:57:23.489Z,13.01
2022-09-25T06:57:56.779Z,13.04
2022-09-25T06:58:30.966Z,13.06
2022-09-25T06:59:05.571Z,13.08
2022-09-25T06:59:39.586Z,13.10
2022-09-25T07:00:13.196Z,13.12
2022-09-25T07:00:51.206Z,13.14
2022-09-25T07:01:24.736Z,13.16
2022-09-25T07:02:17.972Z,13.19
2022-09-25T07:03:10.242Z,13.22
2022-09-25T07:03:46.560Z,13.24
2022-09-25T07:04:19.937Z,13.25
2022-09-25T07:04:53.183Z,13.26
2022-09-25T07:05:26.375Z,13.28
2022-09-25T07:06:04.739Z,13.29
2022-09-25T07:06:38.176Z,13.30
2022-09-25T07:07:11.479Z,13.32
2022-09-25T07:07:45.366Z,13.33
2022-09-25T07:08:21.242Z,13.36
2022-09-25T07:08:57.253Z,13.39
2022-09-25T07:09:30.525Z,13.42
2022-09-25T07:10:04.053Z,13.44
2022-09-25T07:10:37.278Z,13.46
2022-09-25T07:11:14.290Z,13.48
2022-09-25T07:11:48.972Z,13.50
2022-09-25T07:12:22.192Z,13.52
2022-09-25T07:12:55.388Z,13.53
2022-09-25T07:13:33.094Z,13.54
2022-09-25T07:14:06.318Z,13.57
2022-09-25T07:14:39.641Z,13.57
2022-09-25T07:15:12.903Z,13.58
2022-09-25T07:16:06.743Z,13.59
2022-09-25T07:16:40.052Z,13.59
2022-09-25T07:17:14.460Z,13.58
2022-09-25T07:17:47.744Z,13.58
2022-09-25T07:18:23.286Z,13.59
2022-09-25T07:19:03.584Z,13.59
2022-09-25T07:19:36.809Z,13.60
2022-09-25T07:20:13.000Z,13.60
2022-09-25T07:20:47.209Z,13.63
2022-09-25T07:21:23.014Z,13.65
2022-09-25T07:21:56.830Z,13.67
2022-09-25T07:22:30.373Z,13.69
2022-09-25T07:23:04.404Z,13.71
2022-09-25T07:23:38.296Z,13.73
2022-09-25T07:24:11.768Z,13.74
2022-09-25T07:24:45.347Z,13.75
2022-09-25T07:25:18.684Z,13.75
2022-09-25T07:25:51.914Z,13.75
2022-09-25T07:26:27.562Z,13.75
2022-09-25T07:27:00.917Z,13.76
2022-09-25T07:27:35.379Z,13.76
2022-09-25T07:28:08.579Z,13.76
2022-09-25T07:28:44.219Z,13.76
2022-09-25T07:29:17.338Z,13.76
2022-09-25T07:29:52.116Z,13.76
2022-09-25T07:30:28.662Z,13.75
2022-09-25T07:31:17.830Z,13.75
2022-09-25T07:31:51.210Z,13.75
2022-09-25T07:32:24.426Z,13.75
2022-09-25T07:33:00.202Z,13.75
2022-09-25T07:33:33.628Z,13.76
2022-09-25T07:34:09.773Z,13.76
2022-09-25T07:34:44.065Z,13.77
2022-09-25T07:35:18.803Z,13.77
2022-09-25T07:35:54.898Z,13.77
2022-09-25T07:36:29.248Z,13.78
2022-09-25T07:37:02.514Z,13.79
2022-09-25T07:37:35.662Z,13.81
2022-09-25T07:38:08.759Z,13.82
2022-09-25T07:38:42.385Z,13.84
2022-09-25T07:39:18.494Z,13.86
2022-09-25T07:39:52.002Z,13.88
2022-09-25T07:40:29.216Z,13.89
2022-09-25T07:41:02.354Z,13.90
2022-09-25T07:41:37.943Z,13.91
2022-09-25T07:42:11.693Z,13.93
2022-09-25T07:42:44.848Z,13.94
2022-09-25T07:43:17.945Z,13.95
2022-09-25T07:44:40.173Z,13.96
2022-09-25T07:44:51.571Z,13.96
2022-09-25T07:45:25.129Z,13.96
2022-09-25T07:45:58.399Z,13.95
2022-09-25T07:46:32.423Z,13.95
2022-09-25T07:47:07.481Z,13.95
2022-09-25T07:47:40.733Z,13.96
2022-09-25T07:48:14.831Z,13.97
2022-09-25T07:48:51.766Z,13.98
2022-09-25T07:49:24.974Z,14.00
2022-09-25T07:49:58.951Z,14.01
2022-09-25T07:50:33.878Z,14.02
2022-09-25T07:51:09.502Z,14.03
2022-09-25T07:51:42.783Z,14.04
2022-09-25T07:52:16.016Z,14.05
2022-09-25T07:52:49.326Z,14.06
2022-09-25T07:53:22.716Z,14.08
2022-09-25T07:53:55.819Z,14.09
2022-09-25T07:54:28.872Z,14.10